PRIVATE WETTERSTATION BILLIGHEIM-ALLFELD                       ZURCK
Wetterdaten: Freitag, 19.09.2014
Datum Zeit Temp. A. Temp. A. min Temp. A. max Feuchte A. Luftdruck Regen Wind Richtung Richtung Sonnenschein ET Solar Taupunkt Windchill Windben Empfang
19.09.2014 00:00 17,3 C 17,2 C 17,3 C 90 % 1011,5 hPa 0,0 l/m 0,0 km/h (0 Bft) N 0 0 min 0,000 mm 0 W/m 15,6 C 17,3 C 0,0 km/h (0 Bft) 100 %
19.09.2014 00:10 17,2 C 17,2 C 17,3 C 90 % 1011,7 hPa 0,0 l/m 0,0 km/h (0 Bft) SO 135 0 min 0,000 mm 0 W/m 15,5 C 17,2 C 1,6 km/h (1 Bft) 100 %
19.09.2014 00:20 17,1 C 17,1 C 17,2 C 90 % 1011,7 hPa 0,0 l/m 0,0 km/h (0 Bft) N 0 0 min 0,000 mm 0 W/m 15,4 C 17,1 C 0,0 km/h (0 Bft) 100 %
19.09.2014 00:30 16,8 C 16,8 C 17,1 C 90 % 1011,7 hPa 0,0 l/m 0,0 km/h (0 Bft) SO 135 0 min 0,000 mm 0 W/m 15,1 C 16,8 C 1,6 km/h (1 Bft) 100 %
19.09.2014 00:40 16,8 C 16,7 C 16,8 C 89 % 1011,6 hPa 0,2 l/m 0,0 km/h (0 Bft) SO 135 0 min 0,000 mm 0 W/m 15,0 C 16,8 C 1,6 km/h (1 Bft) 100 %
19.09.2014 00:50 16,7 C 16,7 C 16,8 C 89 % 1011,6 hPa 0,0 l/m 0,0 km/h (0 Bft) N 0 0 min 0,000 mm 0 W/m 14,9 C 16,7 C 0,0 km/h (0 Bft) 100 %
19.09.2014 01:00 16,6 C 16,6 C 16,7 C 90 % 1011,5 hPa 0,0 l/m 0,0 km/h (0 Bft) N 0 0 min 0,000 mm 0 W/m 15,0 C 16,6 C 0,0 km/h (0 Bft) 100 %
19.09.2014 01:10 16,4 C 16,4 C 16,6 C 90 % 1011,3 hPa 0,0 l/m 0,0 km/h (0 Bft) N 0 0 min 0,000 mm 0 W/m 14,8 C 16,4 C 0,0 km/h (0 Bft) 100 %
19.09.2014 01:20 16,2 C 16,2 C 16,4 C 90 % 1011,4 hPa 0,0 l/m 0,0 km/h (0 Bft) SO 135 0 min 0,000 mm 0 W/m 14,6 C 16,2 C 1,6 km/h (1 Bft) 100 %
19.09.2014 01:30 16,1 C 16,1 C 16,2 C 90 % 1011,4 hPa 0,0 l/m 0,0 km/h (0 Bft) N 0 0 min 0,000 mm 0 W/m 14,5 C 16,1 C 0,0 km/h (0 Bft) 100 %
19.09.2014 01:40 15,9 C 15,9 C 16,1 C 90 % 1011,4 hPa 0,0 l/m 0,0 km/h (0 Bft) N 0 0 min 0,000 mm 0 W/m 14,3 C 15,9 C 0,0 km/h (0 Bft) 100 %
19.09.2014 01:50 15,7 C 15,7 C 15,9 C 90 % 1011,4 hPa 0,0 l/m 0,0 km/h (0 Bft) N 0 0 min 0,000 mm 0 W/m 14,1 C 15,7 C 0,0 km/h (0 Bft) 100 %
19.09.2014 02:00 15,6 C 15,6 C 15,8 C 90 % 1011,2 hPa 0,0 l/m 0,0 km/h (0 Bft) N 0 0 min 0,000 mm 0 W/m 14,0 C 15,6 C 0,0 km/h (0 Bft) 100 %
19.09.2014 02:10 15,6 C 15,6 C 15,6 C 90 % 1011,3 hPa 0,0 l/m 0,0 km/h (0 Bft) N 0 0 min 0,000 mm 0 W/m 14,0 C 15,6 C 0,0 km/h (0 Bft) 100 %
19.09.2014 02:20 15,5 C 15,4 C 15,6 C 90 % 1011,3 hPa 0,0 l/m 0,0 km/h (0 Bft) N 0 0 min 0,000 mm 0 W/m 13,9 C 15,5 C 0,0 km/h (0 Bft) 100 %
19.09.2014 02:30 15,3 C 15,3 C 15,4 C 90 % 1011,3 hPa 0,0 l/m 0,0 km/h (0 Bft) N 0 0 min 0,000 mm 0 W/m 13,7 C 15,3 C 0,0 km/h (0 Bft) 100 %
19.09.2014 02:40 15,2 C 15,2 C 15,4 C 90 % 1011,2 hPa 0,0 l/m 0,0 km/h (0 Bft) SO 135 0 min 0,000 mm 0 W/m 13,6 C 15,2 C 1,6 km/h (1 Bft) 100 %
19.09.2014 02:50 15,1 C 15,1 C 15,2 C 90 % 1011,2 hPa 0,0 l/m 0,0 km/h (0 Bft) N 0 0 min 0,000 mm 0 W/m 13,5 C 15,1 C 0,0 km/h (0 Bft) 100 %
19.09.2014 03:00 15,1 C 15,1 C 15,1 C 90 % 1011,2 hPa 0,0 l/m 0,0 km/h (0 Bft) N 0 0 min 0,000 mm 0 W/m 13,5 C 15,1 C 0,0 km/h (0 Bft) 100 %
19.09.2014 03:10 14,8 C 14,8 C 15,1 C 90 % 1011,3 hPa 0,0 l/m 0,0 km/h (0 Bft) N 0 0 min 0,000 mm 0 W/m 13,2 C 14,8 C 0,0 km/h (0 Bft) 100 %
19.09.2014 03:20 14,8 C 14,8 C 14,8 C 90 % 1011,2 hPa 0,0 l/m 0,0 km/h (0 Bft) N 0 0 min 0,000 mm 0 W/m 13,2 C 14,8 C 0,0 km/h (0 Bft) 100 %
19.09.2014 03:30 14,8 C 14,8 C 14,8 C 90 % 1011,1 hPa 0,0 l/m 0,0 km/h (0 Bft) N 0 0 min 0,000 mm 0 W/m 13,2 C 14,8 C 0,0 km/h (0 Bft) 99 %
19.09.2014 03:40 14,8 C 14,8 C 14,8 C 90 % 1011,1 hPa 0,0 l/m 0,0 km/h (0 Bft) N 0 0 min 0,000 mm 0 W/m 13,2 C 14,8 C 0,0 km/h (0 Bft) 100 %
19.09.2014 03:50 14,7 C 14,7 C 14,8 C 90 % 1011,1 hPa 0,0 l/m 0,0 km/h (0 Bft) N 0 0 min 0,000 mm 0 W/m 13,1 C 14,7 C 0,0 km/h (0 Bft) 100 %
19.09.2014 04:00 14,5 C 14,5 C 14,7 C 90 % 1011,0 hPa 0,0 l/m 0,0 km/h (0 Bft) N 0 0 min 0,000 mm 0 W/m 12,9 C 14,5 C 0,0 km/h (0 Bft) 100 %
19.09.2014 04:10 14,4 C 14,4 C 14,5 C 90 % 1011,0 hPa 0,0 l/m 0,0 km/h (0 Bft) N 0 0 min 0,000 mm 0 W/m 12,8 C 14,4 C 0,0 km/h (0 Bft) 99 %
19.09.2014 04:20 14,4 C 14,3 C 14,4 C 90 % 1011,1 hPa 0,0 l/m 0,0 km/h (0 Bft) N 0 0 min 0,000 mm 0 W/m 12,8 C 14,4 C 0,0 km/h (0 Bft) 90 %
19.09.2014 04:30 14,4 C 14,4 C 14,4 C 90 % 1011,0 hPa 0,0 l/m 0,0 km/h (0 Bft) N 0 0 min 0,000 mm 0 W/m 12,8 C 14,4 C 0,0 km/h (0 Bft) 100 %
19.09.2014 04:40 14,4 C 14,4 C 14,4 C 90 % 1011,1 hPa 0,0 l/m 0,0 km/h (0 Bft) SO 135 0 min 0,000 mm 0 W/m 12,8 C 14,4 C 1,6 km/h (1 Bft) 100 %
19.09.2014 04:50 14,5 C 14,4 C 14,5 C 90 % 1011,0 hPa 0,0 l/m 0,0 km/h (0 Bft) N 0 0 min 0,000 mm 0 W/m 12,9 C 14,5 C 0,0 km/h (0 Bft) 100 %
19.09.2014 05:00 14,5 C 14,5 C 14,5 C 90 % 1011,3 hPa 0,0 l/m 0,0 km/h (0 Bft) N 0 0 min 0,000 mm 0 W/m 12,9 C 14,5 C 0,0 km/h (0 Bft) 100 %
19.09.2014 05:10 14,6 C 14,5 C 14,6 C 90 % 1011,6 hPa 0,0 l/m 0,0 km/h (0 Bft) SO 135 0 min 0,000 mm 0 W/m 13,0 C 14,6 C 1,6 km/h (1 Bft) 100 %
19.09.2014 05:20 14,6 C 14,6 C 14,6 C 90 % 1012,0 hPa 0,0 l/m 1,6 km/h (1 Bft) SW 225 0 min 0,000 mm 0 W/m 13,0 C 14,6 C 4,8 km/h (1 Bft) 100 %
19.09.2014 05:30 14,8 C 14,6 C 14,8 C 90 % 1011,9 hPa 0,0 l/m 1,6 km/h (1 Bft) S-SO 157 0 min 0,000 mm 0 W/m 13,2 C 14,8 C 4,8 km/h (1 Bft) 100 %
19.09.2014 05:40 15,2 C 14,8 C 15,2 C 90 % 1011,8 hPa 0,2 l/m 1,6 km/h (1 Bft) S 180 0 min 0,000 mm 0 W/m 13,6 C 15,2 C 6,4 km/h (2 Bft) 100 %
19.09.2014 05:50 15,3 C 15,2 C 15,3 C 90 % 1011,9 hPa 0,0 l/m 3,2 km/h (1 Bft) S-SO 157 0 min 0,000 mm 0 W/m 13,7 C 15,3 C 6,4 km/h (2 Bft) 100 %
19.09.2014 06:00 15,4 C 15,3 C 15,4 C 89 % 1011,9 hPa 0,0 l/m 6,4 km/h (2 Bft) SO 135 0 min 0,000 mm 0 W/m 13,6 C 15,4 C 11,3 km/h (2 Bft) 100 %
19.09.2014 06:10 15,4 C 15,4 C 15,4 C 89 % 1011,8 hPa 0,0 l/m 6,4 km/h (2 Bft) S-SO 157 0 min 0,000 mm 0 W/m 13,6 C 15,4 C 14,5 km/h (3 Bft) 100 %
19.09.2014 06:20 15,4 C 15,4 C 15,4 C 89 % 1011,7 hPa 0,0 l/m 4,8 km/h (1 Bft) SO 135 0 min 0,000 mm 0 W/m 13,6 C 15,4 C 11,3 km/h (2 Bft) 100 %
19.09.2014 06:30 15,4 C 15,4 C 15,4 C 90 % 1011,6 hPa 0,0 l/m 4,8 km/h (1 Bft) SO 135 0 min 0,000 mm 0 W/m 13,8 C 15,4 C 9,7 km/h (2 Bft) 100 %
19.09.2014 06:40 15,4 C 15,3 C 15,4 C 90 % 1011,7 hPa 0,0 l/m 0,0 km/h (0 Bft) SO 135 0 min 0,000 mm 0 W/m 13,8 C 15,4 C 6,4 km/h (2 Bft) 100 %
19.09.2014 06:50 15,4 C 15,3 C 15,4 C 90 % 1011,8 hPa 0,0 l/m 3,2 km/h (1 Bft) SO 135 0 min 0,000 mm 0 W/m 13,8 C 15,4 C 9,7 km/h (2 Bft) 100 %
19.09.2014 07:00 15,3 C 15,3 C 15,4 C 90 % 1011,9 hPa 0,0 l/m 1,6 km/h (1 Bft) S-SO 157 0 min 0,000 mm 0 W/m 13,7 C 15,3 C 6,4 km/h (2 Bft) 100 %
19.09.2014 07:10 15,4 C 15,3 C 15,4 C 90 % 1011,8 hPa 0,0 l/m 3,2 km/h (1 Bft) S-SO 157 0 min 0,000 mm 5 W/m 13,8 C 15,4 C 9,7 km/h (2 Bft) 100 %
19.09.2014 07:20 15,4 C 15,4 C 15,4 C 90 % 1011,8 hPa 0,2 l/m 0,0 km/h (0 Bft) SO 135 0 min 0,000 mm 5 W/m 13,8 C 15,4 C 1,6 km/h (1 Bft) 100 %
19.09.2014 07:30 15,4 C 15,4 C 15,4 C 90 % 1011,8 hPa 0,2 l/m 0,0 km/h (0 Bft) N 0 0 min 0,000 mm 7 W/m 13,8 C 15,4 C 0,0 km/h (0 Bft) 100 %
19.09.2014 07:40 15,4 C 15,4 C 15,4 C 90 % 1011,9 hPa 0,0 l/m 0,0 km/h (0 Bft) N 0 0 min 0,000 mm 18 W/m 13,8 C 15,4 C 0,0 km/h (0 Bft) 100 %
19.09.2014 07:50 15,4 C 15,4 C 15,5 C 90 % 1012,1 hPa 0,0 l/m 1,6 km/h (1 Bft) SO 135 0 min 0,000 mm 32 W/m 13,8 C 15,4 C 4,8 km/h (1 Bft) 100 %
19.09.2014 08:00 15,5 C 15,4 C 15,5 C 90 % 1012,0 hPa 0,0 l/m 0,0 km/h (0 Bft) SO 135 0 min 0,000 mm 46 W/m 13,9 C 15,5 C 3,2 km/h (1 Bft) 100 %
19.09.2014 08:10 15,6 C 15,5 C 15,6 C 90 % 1012,1 hPa 0,0 l/m 0,0 km/h (0 Bft) SO 135 0 min 0,000 mm 47 W/m 14,0 C 15,6 C 1,6 km/h (1 Bft) 99 %
19.09.2014 08:20 15,7 C 15,6 C 15,7 C 90 % 1012,1 hPa 0,0 l/m 1,6 km/h (1 Bft) SO 135 0 min 0,000 mm 51 W/m 14,1 C 15,7 C 6,4 km/h (2 Bft) 100 %
19.09.2014 08:30 15,6 C 15,6 C 15,7 C 90 % 1011,8 hPa 0,0 l/m 3,2 km/h (1 Bft) SO 135 0 min 0,000 mm 63 W/m 14,0 C 15,6 C 6,4 km/h (2 Bft) 100 %
19.09.2014 08:40 15,8 C 15,6 C 15,8 C 90 % 1011,9 hPa 0,0 l/m 1,6 km/h (1 Bft) S-SO 157 10 min 0,000 mm 183 W/m 14,2 C 15,8 C 6,4 km/h (2 Bft) 100 %
19.09.2014 08:50 15,9 C 15,7 C 15,9 C 89 % 1011,9 hPa 0,0 l/m 1,6 km/h (1 Bft) S-SO 157 10 min 0,000 mm 190 W/m 14,1 C 15,9 C 6,4 km/h (2 Bft) 100 %
19.09.2014 09:00 16,4 C 15,9 C 16,4 C 90 % 1011,9 hPa 0,0 l/m 1,6 km/h (1 Bft) S 180 10 min 0,051 mm 311 W/m 14,8 C 16,4 C 8,0 km/h (2 Bft) 100 %
19.09.2014 09:10 16,6 C 16,4 C 16,7 C 89 % 1011,9 hPa 0,0 l/m 3,2 km/h (1 Bft) S 180 10 min 0,000 mm 352 W/m 14,8 C 16,6 C 8,0 km/h (2 Bft) 100 %
19.09.2014 09:20 16,5 C 16,4 C 16,7 C 90 % 1012,0 hPa 0,0 l/m 4,6 km/h (1 Bft) SO 141 0 min 0,000 mm 116 W/m 14,9 C 16,5 C 9,7 km/h (2 Bft) 97 %
19.09.2014 09:30 16,6 C 16,5 C 16,6 C 90 % 1012,0 hPa 0,0 l/m 3,3 km/h (1 Bft) S-SO 167 0 min 0,000 mm 132 W/m 15,0 C 16,6 C 11,3 km/h (2 Bft) 97 %
19.09.2014 09:40 16,8 C 16,6 C 16,8 C 90 % 1012,2 hPa 0,0 l/m 2,2 km/h (1 Bft) S-SO 157 10 min 0,000 mm 241 W/m 15,1 C 16,8 C 9,7 km/h (2 Bft) 98 %
19.09.2014 09:50 16,8 C 16,8 C 16,9 C 90 % 1012,2 hPa 0,0 l/m 4,7 km/h (1 Bft) S-SO 158 0 min 0,000 mm 141 W/m 15,1 C 16,8 C 14,5 km/h (3 Bft) 97 %
19.09.2014 10:00 16,9 C 16,8 C 16,9 C 90 % 1012,3 hPa 0,0 l/m 4,0 km/h (1 Bft) S-SO 162 0 min 0,076 mm 130 W/m 15,2 C 16,9 C 9,7 km/h (2 Bft) 98 %
19.09.2014 10:10 17,1 C 16,9 C 17,1 C 90 % 1012,2 hPa 0,0 l/m 3,5 km/h (1 Bft) SO 130 0 min 0,000 mm 137 W/m 15,4 C 17,1 C 11,3 km/h (2 Bft) 97 %
19.09.2014 10:20 17,3 C 17,1 C 17,3 C 90 % 1012,5 hPa 0,0 l/m 2,1 km/h (1 Bft) S-SO 153 10 min 0,000 mm 172 W/m 15,6 C 17,3 C 9,7 km/h (2 Bft) 98 %
19.09.2014 10:30 17,6 C 17,3 C 17,6 C 90 % 1012,5 hPa 0,0 l/m 3,0 km/h (1 Bft) S 169 10 min 0,000 mm 186 W/m 15,9 C 17,6 C 9,7 km/h (2 Bft) 97 %
19.09.2014 10:40 17,7 C 17,6 C 17,7 C 90 % 1012,4 hPa 0,0 l/m 2,9 km/h (1 Bft) S 170 10 min 0,000 mm 218 W/m 16,0 C 17,7 C 9,7 km/h (2 Bft) 97 %
19.09.2014 10:50 18,0 C 17,7 C 18,0 C 90 % 1012,4 hPa 0,0 l/m 0,7 km/h (0 Bft) S-SW 207 10 min 0,000 mm 237 W/m 16,3 C 18,0 C 9,7 km/h (2 Bft) 97 %
19.09.2014 11:00 18,2 C 18,0 C 18,2 C 90 % 1012,4 hPa 0,0 l/m 1,6 km/h (1 Bft) S-SO 164 10 min 0,102 mm 348 W/m 16,5 C 18,2 C 8,0 km/h (2 Bft) 97 %
19.09.2014 11:10 18,7 C 18,2 C 18,7 C 90 % 1012,5 hPa 0,0 l/m 0,5 km/h (0 Bft) S-SO 158 10 min 0,000 mm 671 W/m 17,0 C 18,7 C 6,4 km/h (2 Bft) 98 %
19.09.2014 11:20 19,6 C 18,7 C 19,6 C 90 % 1012,3 hPa 0,0 l/m 0,3 km/h (0 Bft) W-NW 302 10 min 0,000 mm 742 W/m 17,9 C 19,6 C 4,8 km/h (1 Bft) 97 %
19.09.2014 11:30 19,9 C 19,6 C 19,9 C 85 % 1012,4 hPa 0,0 l/m 5,4 km/h (1 Bft) S-SW 204 10 min 0,000 mm 285 W/m 17,3 C 19,9 C 17,7 km/h (3 Bft) 98 %
19.09.2014 11:40 19,9 C 19,8 C 19,9 C 86 % 1012,3 hPa 0,0 l/m 2,9 km/h (1 Bft) NW 311 10 min 0,000 mm 325 W/m 17,5 C 19,9 C 9,7 km/h (2 Bft) 97 %
19.09.2014 11:50 20,3 C 19,9 C 20,3 C 87 % 1012,3 hPa 0,0 l/m 2,5 km/h (1 Bft) W 281 10 min 0,000 mm 749 W/m 18,1 C 20,3 C 9,7 km/h (2 Bft) 97 %
19.09.2014 12:00 20,8 C 20,3 C 20,8 C 85 % 1012,4 hPa 0,0 l/m 3,8 km/h (1 Bft) W-NW 286 10 min 0,000 mm 499 W/m 18,2 C 20,8 C 9,7 km/h (2 Bft) 98 %
19.09.2014 12:10 21,1 C 20,8 C 21,1 C 82 % 1012,4 hPa 0,0 l/m 3,4 km/h (1 Bft) W 263 10 min 0,254 mm 621 W/m 17,9 C 21,1 C 11,3 km/h (2 Bft) 97 %
19.09.2014 12:20 21,4 C 21,1 C 21,4 C 82 % 1012,4 hPa 0,0 l/m 3,1 km/h (1 Bft) W-SW 254 10 min 0,000 mm 638 W/m 18,2 C 21,4 C 11,3 km/h (2 Bft) 98 %
19.09.2014 12:30 21,7 C 21,4 C 21,7 C 80 % 1012,4 hPa 0,0 l/m 4,0 km/h (1 Bft) W 275 10 min 0,000 mm 376 W/m 18,1 C 21,7 C 16,1 km/h (3 Bft) 98 %
19.09.2014 12:40 21,8 C 21,7 C 21,8 C 81 % 1012,5 hPa 0,0 l/m 2,5 km/h (1 Bft) W-SW 257 10 min 0,000 mm 664 W/m 18,4 C 21,8 C 11,3 km/h (2 Bft) 97 %
19.09.2014 12:50 22,2 C 21,8 C 22,2 C 79 % 1012,5 hPa 0,0 l/m 2,5 km/h (1 Bft) SW 231 10 min 0,000 mm 656 W/m 18,4 C 22,2 C 11,3 km/h (2 Bft) 98 %
19.09.2014 13:00 22,6 C 22,2 C 22,6 C 77 % 1012,6 hPa 0,0 l/m 7,1 km/h (2 Bft) S-SW 204 10 min 0,330 mm 403 W/m 18,4 C 22,4 C 17,7 km/h (3 Bft) 97 %
19.09.2014 13:10 22,7 C 22,6 C 22,7 C 77 % 1012,6 hPa 0,0 l/m 4,1 km/h (1 Bft) W-SW 255 10 min 0,000 mm 606 W/m 18,5 C 22,7 C 14,5 km/h (3 Bft) 98 %
19.09.2014 13:20 23,0 C 22,7 C 23,0 C 77 % 1012,6 hPa 0,0 l/m 4,5 km/h (1 Bft) SW 220 10 min 0,000 mm 719 W/m 18,7 C 23,0 C 14,5 km/h (3 Bft) 97 %
19.09.2014 13:30 23,3 C 23,0 C 23,3 C 75 % 1012,5 hPa 0,0 l/m 3,9 km/h (1 Bft) W-NW 289 10 min 0,000 mm 722 W/m 18,6 C 23,3 C 17,7 km/h (3 Bft) 98 %
19.09.2014 13:40 23,8 C 23,3 C 23,8 C 71 % 1012,4 hPa 0,0 l/m 4,8 km/h (1 Bft) W 280 10 min 0,000 mm 691 W/m 18,2 C 23,8 C 11,3 km/h (2 Bft) 97 %
19.09.2014 13:50 23,6 C 23,6 C 23,8 C 71 % 1012,4 hPa 0,0 l/m 3,3 km/h (1 Bft) W-NW 285 0 min 0,000 mm 130 W/m 18,0 C 23,6 C 14,5 km/h (3 Bft) 97 %
19.09.2014 14:00 23,2 C 23,2 C 23,6 C 73 % 1012,3 hPa 0,0 l/m 2,8 km/h (1 Bft) SW 223 10 min 0,355 mm 673 W/m 18,1 C 23,2 C 14,5 km/h (3 Bft) 97 %
19.09.2014 14:10 23,3 C 23,2 C 23,3 C 71 % 1012,3 hPa 0,0 l/m 3,4 km/h (1 Bft) W-SW 254 10 min 0,000 mm 649 W/m 17,7 C 23,3 C 11,3 km/h (2 Bft) 97 %
19.09.2014 14:20 23,3 C 23,3 C 23,4 C 72 % 1012,4 hPa 0,0 l/m 3,1 km/h (1 Bft) W-SW 240 0 min 0,000 mm 148 W/m 18,0 C 23,3 C 11,3 km/h (2 Bft) 98 %
19.09.2014 14:30 23,1 C 23,1 C 23,3 C 73 % 1012,3 hPa 0,0 l/m 0,5 km/h (0 Bft) W-SW 258 10 min 0,000 mm 197 W/m 18,0 C 23,1 C 6,4 km/h (2 Bft) 97 %
19.09.2014 14:40 23,1 C 23,1 C 23,1 C 72 % 1012,3 hPa 0,0 l/m 3,0 km/h (1 Bft) W-NW 287 10 min 0,000 mm 751 W/m 17,8 C 23,1 C 14,5 km/h (3 Bft) 97 %
19.09.2014 14:50 23,4 C 23,1 C 23,4 C 71 % 1012,2 hPa 0,0 l/m 1,0 km/h (0 Bft) NW 306 10 min 0,000 mm 227 W/m 17,8 C 23,4 C 8,0 km/h (2 Bft) 97 %
19.09.2014 15:00 23,7 C 23,4 C 23,7 C 74 % 1012,1 hPa 0,0 l/m 2,4 km/h (1 Bft) W-NW 284 10 min 0,254 mm 570 W/m 18,8 C 23,7 C 8,0 km/h (2 Bft) 97 %
19.09.2014 15:10 24,1 C 23,7 C 24,1 C 69 % 1012,1 hPa 0,0 l/m 3,9 km/h (1 Bft) W-NW 288 10 min 0,000 mm 582 W/m 18,0 C 24,1 C 11,3 km/h (2 Bft) 97 %
19.09.2014 15:20 24,2 C 24,1 C 24,2 C 70 % 1012,1 hPa 0,0 l/m 2,9 km/h (1 Bft) W-SW 249 10 min 0,000 mm 431 W/m 18,4 C 24,2 C 9,7 km/h (2 Bft) 98 %
19.09.2014 15:30 24,3 C 24,2 C 24,3 C 68 % 1012,0 hPa 0,0 l/m 2,8 km/h (1 Bft) W-NW 286 10 min 0,000 mm 570 W/m 18,0 C 24,3 C 9,7 km/h (2 Bft) 97 %
19.09.2014 15:40 24,6 C 24,3 C 24,6 C 67 % 1012,0 hPa 0,0 l/m 1,7 km/h (1 Bft) W 262 0 min 0,000 mm 98 W/m 18,1 C 24,6 C 9,7 km/h (2 Bft) 97 %
19.09.2014 15:50 24,2 C 24,2 C 24,6 C 66 % 1012,0 hPa 0,0 l/m 0,7 km/h (0 Bft) W-NW 286 10 min 0,000 mm 163 W/m 17,4 C 24,2 C 6,4 km/h (2 Bft) 98 %
19.09.2014 16:00 24,2 C 24,1 C 24,2 C 70 % 1011,8 hPa 0,0 l/m 2,1 km/h (1 Bft) W-NW 298 10 min 0,305 mm 536 W/m 18,4 C 24,2 C 11,3 km/h (2 Bft) 97 %
19.09.2014 16:10 24,4 C 24,2 C 24,4 C 68 % 1011,9 hPa 0,0 l/m 2,6 km/h (1 Bft) S-SW 209 0 min 0,000 mm 141 W/m 18,1 C 24,4 C 11,3 km/h (2 Bft) 97 %
19.09.2014 16:20 24,5 C 24,4 C 24,5 C 68 % 1012,0 hPa 0,0 l/m 4,5 km/h (1 Bft) S-SW 211 0 min 0,000 mm 128 W/m 18,2 C 24,5 C 14,5 km/h (3 Bft) 97 %
19.09.2014 16:30 24,2 C 24,2 C 24,5 C 68 % 1012,1 hPa 0,0 l/m 8,2 km/h (2 Bft) W-SW 254 0 min 0,000 mm 120 W/m 17,9 C 23,7 C 16,1 km/h (3 Bft) 97 %
19.09.2014 16:40 23,7 C 23,7 C 24,2 C 70 % 1012,0 hPa 0,0 l/m 3,6 km/h (1 Bft) W 264 0 min 0,000 mm 132 W/m 17,9 C 23,7 C 14,5 km/h (3 Bft) 98 %
19.09.2014 16:50 23,8 C 23,7 C 23,8 C 71 % 1012,1 hPa 0,2 l/m 2,2 km/h (1 Bft) W-SW 255 10 min 0,000 mm 162 W/m 18,2 C 23,8 C 9,7 km/h (2 Bft) 97 %
19.09.2014 17:00 23,7 C 23,7 C 23,8 C 71 % 1012,1 hPa 0,0 l/m 4,4 km/h (1 Bft) SW 231 10 min 0,127 mm 163 W/m 18,1 C 23,7 C 14,5 km/h (3 Bft) 98 %
19.09.2014 17:10 23,6 C 23,6 C 23,7 C 72 % 1012,0 hPa 0,0 l/m 2,5 km/h (1 Bft) S-SW 200 10 min 0,000 mm 188 W/m 18,2 C 23,6 C 9,7 km/h (2 Bft) 97 %
19.09.2014 17:20 23,7 C 23,6 C 23,7 C 71 % 1012,0 hPa 0,0 l/m 3,9 km/h (1 Bft) W-NW 297 0 min 0,000 mm 134 W/m 18,1 C 23,7 C 9,7 km/h (2 Bft) 97 %
19.09.2014 17:30 23,6 C 23,6 C 23,7 C 71 % 1012,0 hPa 0,0 l/m 3,3 km/h (1 Bft) S-SW 200 0 min 0,000 mm 93 W/m 18,0 C 23,6 C 9,7 km/h (2 Bft) 98 %
19.09.2014 17:40 23,1 C 23,1 C 23,6 C 72 % 1012,1 hPa 0,0 l/m 8,7 km/h (2 Bft) S-SO 147 0 min 0,000 mm 90 W/m 17,8 C 22,4 C 19,3 km/h (3 Bft) 97 %
19.09.2014 17:50 21,9 C 21,9 C 23,1 C 77 % 1012,2 hPa 0,0 l/m 11,9 km/h (2 Bft) S-SO 157 0 min 0,000 mm 46 W/m 17,7 C 20,2 C 24,1 km/h (4 Bft) 98 %
19.09.2014 18:00 21,2 C 21,2 C 21,9 C 80 % 1012,2 hPa 0,0 l/m 8,9 km/h (2 Bft) S 184 0 min 0,102 mm 32 W/m 17,6 C 20,3 C 22,5 km/h (4 Bft) 97 %
19.09.2014 18:10 20,7 C 20,7 C 21,2 C 82 % 1012,1 hPa 0,0 l/m 7,0 km/h (2 Bft) S-SO 155 0 min 0,000 mm 25 W/m 17,5 C 20,5 C 22,5 km/h (4 Bft) 97 %
19.09.2014 18:20 20,4 C 20,4 C 20,7 C 83 % 1012,1 hPa 0,0 l/m 1,3 km/h (1 Bft) S-SO 155 0 min 0,000 mm 32 W/m 17,4 C 20,4 C 11,3 km/h (2 Bft) 98 %
19.09.2014 18:30 20,3 C 20,3 C 20,4 C 83 % 1012,1 hPa 0,0 l/m 0,0 km/h (0 Bft) SO 145 0 min 0,000 mm 32 W/m 17,3 C 20,3 C 1,6 km/h (1 Bft) 97 %
19.09.2014 18:40 20,2 C 20,2 C 20,3 C 84 % 1012,1 hPa 0,0 l/m 0,0 km/h (0 Bft) SO 144 0 min 0,000 mm 28 W/m 17,4 C 20,2 C 1,6 km/h (1 Bft) 97 %
19.09.2014 18:50 20,0 C 20,0 C 20,2 C 85 % 1012,1 hPa 0,0 l/m 0,0 km/h (0 Bft) SO 144 0 min 0,000 mm 23 W/m 17,4 C 20,0 C 1,6 km/h (1 Bft) 97 %
19.09.2014 19:00 19,7 C 19,7 C 20,0 C 86 % 1012,1 hPa 0,0 l/m 0,0 km/h (0 Bft) SO 144 0 min 0,025 mm 19 W/m 17,3 C 19,7 C 0,0 km/h (0 Bft) 98 %
19.09.2014 19:10 19,6 C 19,6 C 19,7 C 86 % 1012,2 hPa 0,0 l/m 0,0 km/h (0 Bft) SO 144 0 min 0,000 mm 14 W/m 17,2 C 19,6 C 1,6 km/h (1 Bft) 97 %
19.09.2014 19:20 19,3 C 19,3 C 19,6 C 87 % 1012,3 hPa 0,0 l/m 0,0 km/h (0 Bft) SO 144 0 min 0,000 mm 7 W/m 17,1 C 19,3 C 1,6 km/h (1 Bft) 98 %
19.09.2014 19:30 19,1 C 19,1 C 19,3 C 88 % 1012,5 hPa 0,0 l/m 0,7 km/h (0 Bft) SO 144 0 min 0,000 mm 0 W/m 17,1 C 19,1 C 4,8 km/h (1 Bft) 97 %
19.09.2014 19:40 18,9 C 18,9 C 19,1 C 88 % 1012,4 hPa 0,0 l/m 0,1 km/h (0 Bft) S-SO 148 0 min 0,000 mm 0 W/m 16,9 C 18,9 C 3,2 km/h (1 Bft) 97 %
19.09.2014 19:50 18,8 C 18,8 C 18,9 C 88 % 1012,5 hPa 0,0 l/m 0,0 km/h (0 Bft) S-SO 148 0 min 0,000 mm 0 W/m 16,8 C 18,8 C 0,0 km/h (0 Bft) 98 %
19.09.2014 20:00 18,6 C 18,6 C 18,8 C 89 % 1012,4 hPa 0,0 l/m 0,0 km/h (0 Bft) S-SO 148 0 min 0,000 mm 0 W/m 16,7 C 18,6 C 1,6 km/h (1 Bft) 98 %
19.09.2014 20:10 18,5 C 18,5 C 18,6 C 89 % 1012,7 hPa 0,0 l/m 0,7 km/h (0 Bft) S-SO 148 0 min 0,000 mm 0 W/m 16,7 C 18,5 C 3,2 km/h (1 Bft) 97 %
19.09.2014 20:20 18,4 C 18,4 C 18,5 C 89 % 1012,8 hPa 0,0 l/m 1,9 km/h (1 Bft) S-SO 161 0 min 0,000 mm 0 W/m 16,6 C 18,4 C 8,0 km/h (2 Bft) 97 %
19.09.2014 20:30 18,3 C 18,3 C 18,4 C 89 % 1012,8 hPa 0,0 l/m 0,3 km/h (0 Bft) SO 141 0 min 0,000 mm 0 W/m 16,5 C 18,3 C 4,8 km/h (1 Bft) 97 %
19.09.2014 20:40 18,3 C 18,3 C 18,4 C 89 % 1012,8 hPa 0,0 l/m 0,0 km/h (0 Bft) SO 144 0 min 0,000 mm 0 W/m 16,5 C 18,3 C 1,6 km/h (1 Bft) 98 %
19.09.2014 20:50 18,3 C 18,3 C 18,3 C 89 % 1012,8 hPa 0,0 l/m 0,0 km/h (0 Bft) SO 126 0 min 0,000 mm 0 W/m 16,5 C 18,3 C 1,6 km/h (1 Bft) 97 %
19.09.2014 21:00 18,2 C 18,2 C 18,3 C 89 % 1012,9 hPa 0,0 l/m 2,1 km/h (1 Bft) SO 138 0 min 0,000 mm 0 W/m 16,4 C 18,2 C 8,0 km/h (2 Bft) 98 %
19.09.2014 21:10 18,1 C 18,1 C 18,2 C 90 % 1012,9 hPa 0,0 l/m 1,6 km/h (1 Bft) SO 135 0 min 0,000 mm 0 W/m 16,4 C 18,1 C 8,0 km/h (2 Bft) 99 %
19.09.2014 21:20 18,0 C 18,0 C 18,1 C 90 % 1013,0 hPa 0,0 l/m 0,0 km/h (0 Bft) SO 135 0 min 0,000 mm 0 W/m 16,3 C 18,0 C 1,6 km/h (1 Bft) 99 %
19.09.2014 21:30 17,9 C 17,9 C 18,0 C 89 % 1013,0 hPa 0,0 l/m 4,8 km/h (1 Bft) SO 135 0 min 0,000 mm 0 W/m 16,1 C 17,9 C 8,0 km/h (2 Bft) 91 %
19.09.2014 21:40 17,9 C 17,9 C 17,9 C 89 % 1013,0 hPa 0,0 l/m 3,2 km/h (1 Bft) S-SO 157 0 min 0,000 mm 0 W/m 16,1 C 17,9 C 9,7 km/h (2 Bft) 100 %
19.09.2014 21:50 17,9 C 17,8 C 17,9 C 89 % 1013,0 hPa 0,0 l/m 1,6 km/h (1 Bft) SO 135 0 min 0,000 mm 0 W/m 16,1 C 17,9 C 8,0 km/h (2 Bft) 100 %
19.09.2014 22:00 17,8 C 17,8 C 17,8 C 89 % 1013,0 hPa 0,0 l/m 0,0 km/h (0 Bft) SO 135 0 min 0,000 mm 0 W/m 16,0 C 17,8 C 1,6 km/h (1 Bft) 100 %
19.09.2014 22:10 17,8 C 17,8 C 17,8 C 89 % 1012,9 hPa 0,0 l/m 0,0 km/h (0 Bft) SO 135 0 min 0,000 mm 0 W/m 16,0 C 17,8 C 1,6 km/h (1 Bft) 100 %
19.09.2014 22:20 17,8 C 17,8 C 17,8 C 89 % 1012,9 hPa 0,0 l/m 0,0 km/h (0 Bft) SO 135 0 min 0,000 mm 0 W/m 16,0 C 17,8 C 1,6 km/h (1 Bft) 100 %
19.09.2014 22:30 17,7 C 17,7 C 17,8 C 90 % 1013,0 hPa 0,0 l/m 1,6 km/h (1 Bft) S-SO 157 0 min 0,000 mm 0 W/m 16,0 C 17,7 C 6,4 km/h (2 Bft) 100 %
19.09.2014 22:40 17,6 C 17,6 C 17,7 C 90 % 1013,1 hPa 0,0 l/m 0,0 km/h (0 Bft) S-SO 157 0 min 0,000 mm 0 W/m 15,9 C 17,6 C 6,4 km/h (2 Bft) 100 %
19.09.2014 22:50 17,6 C 17,6 C 17,6 C 90 % 1013,2 hPa 0,0 l/m 3,2 km/h (1 Bft) SO 135 0 min 0,000 mm 0 W/m 15,9 C 17,6 C 8,0 km/h (2 Bft) 100 %
19.09.2014 23:00 17,5 C 17,5 C 17,6 C 90 % 1013,3 hPa 0,0 l/m 0,0 km/h (0 Bft) SO 135 0 min 0,000 mm 0 W/m 15,8 C 17,5 C 4,8 km/h (1 Bft) 100 %
19.09.2014 23:10 17,4 C 17,4 C 17,5 C 90 % 1013,4 hPa 0,0 l/m 0,0 km/h (0 Bft) SO 135 0 min 0,000 mm 0 W/m 15,7 C 17,4 C 1,6 km/h (1 Bft) 100 %
19.09.2014 23:20 17,3 C 17,3 C 17,4 C 90 % 1013,4 hPa 0,0 l/m 1,6 km/h (1 Bft) SO 135 0 min 0,000 mm 0 W/m 15,6 C 17,3 C 6,4 km/h (2 Bft) 100 %
19.09.2014 23:30 17,3 C 17,3 C 17,3 C 90 % 1013,4 hPa 0,0 l/m 0,0 km/h (0 Bft) N 0 0 min 0,000 mm 0 W/m 15,6 C 17,3 C 0,0 km/h (0 Bft) 100 %
19.09.2014 23:40 17,3 C 17,3 C 17,3 C 90 % 1013,4 hPa 0,0 l/m 0,0 km/h (0 Bft) N 0 0 min 0,000 mm 0 W/m 15,6 C 17,3 C 0,0 km/h (0 Bft) 100 %
19.09.2014 23:50 17,1 C 17,1 C 17,3 C 90 % 1013,5 hPa 0,0 l/m 0,0 km/h (0 Bft) SO 135 0 min 0,000 mm 0 W/m 15,4 C 17,1 C 4,8 km/h (1 Bft) 100 %
_ Min-Zeit 04:20 04:20 04:20 15:50 04:00 - 00:00 - - - - - 04:10 04:10 00:00 04:20
Minimum _ 14,3 C 14,3 C 14,4 C 66 % 1011,0 hPa - 0,0 km/h (0 Bft) - - - - - 12,8 C 14,4 C 0,0 km/h (0 Bft) 90 %
_ Max-Zeit 15:40 16:20 15:40 00:00 23:50 00:40 17:50 - - 08:40 14:00 14:40 15:00 15:40 17:50 00:00
Maximum _ 24,6 C 24,4 C 24,6 C 90 % 1013,5 hPa 0,2 l/m 11,9 km/h
S-SO (2 Bft)
- - 10 min 0,355 mm 751 W/m 18,8 C 24,6 C 24,1 km/h
S-SW (4 Bft)
100 %
Durchschnitt _ 18,5 C 18,4 C 18,6 C 85 % 1012,1 hPa #1,0 l/m 1,9 km/h (1 Bft) S-SO - #6:40 h #1,981 mm 271 W/m 15,8 C 18,4 C 6,6 km/h (2 Bft) 99 %
PRIVATE WETTERSTATION BILLIGHEIM-ALLFELD - www.neckar-odenwald-wetter.de - Holger Sonntag